Time;durP1;ratioP1;P1;durP2;ratioP2;P2;SDS_P1;SDS_P2;PMS_P1;PMS_P2;Temp;Humidity;BMP_temperature;BMP_pressure;BME280_temperature;BME280_humidity;BME280_pressure;Samples;Min_cycle;Max_cycle;Signal;HPM_P1;HPM_P2
2023/02/07 00:02:08;;;;;;;27.83;9.13;;;0.40;99.90;;;;;;6320938;22;39549;-81
2023/02/07 00:04:34;;;;;;;24.40;9.13;;;0.40;99.90;;;;;;6317477;22;38859;-81
2023/02/07 00:07:01;;;;;;;29.37;10.03;;;0.40;99.90;;;;;;6288872;22;37463;-81
2023/02/07 00:09:27;;;;;;;32.40;10.47;;;0.50;99.90;;;;;;6316381;22;47803;-81
2023/02/07 00:11:54;;;;;;;30.70;9.87;;;0.50;99.90;;;;;;6292492;22;38188;-81
2023/02/07 00:14:20;;;;;;;28.70;9.67;;;0.50;99.90;;;;;;6287808;22;37270;-81
2023/02/07 00:16:46;;;;;;;24.93;9.57;;;0.50;99.90;;;;;;6320186;22;37776;-82
2023/02/07 00:19:13;;;;;;;31.53;9.90;;;0.40;99.90;;;;;;6287399;22;36188;-81
2023/02/07 00:21:39;;;;;;;28.33;9.37;;;0.40;99.90;;;;;;6287676;22;37612;-81
2023/02/07 00:24:06;;;;;;;32.83;9.00;;;0.40;99.90;;;;;;6284712;22;39062;-82
2023/02/07 00:26:32;;;;;;;28.63;9.63;;;0.30;99.90;;;;;;6287121;22;38288;-81
2023/02/07 00:28:58;;;;;;;31.33;9.80;;;0.30;99.90;;;;;;6287768;22;38127;-81
2023/02/07 00:31:30;;;;;;;35.33;12.43;;;0.30;99.90;;;;;;6311670;22;39627;-81
2023/02/07 00:34:02;;;;;;;31.27;9.63;;;0.30;99.90;;;;;;6290931;22;37216;-81
2023/02/07 00:36:31;;;;;;;27.52;9.20;;;0.30;99.90;;;;;;6299418;22;48516;-81
2023/02/07 00:39:15;;;;;;;37.27;10.20;;;0.20;99.90;;;;;;6290455;22;37779;-81
2023/02/07 00:41:42;;;;;;;32.23;9.53;;;0.20;99.90;;;;;;6278256;22;47768;-81
2023/02/07 00:44:09;;;;;;;30.73;9.30;;;0.20;99.90;;;;;;6284373;22;37253;-81
2023/02/07 00:46:36;;;;;;;29.20;9.47;;;0.20;99.90;;;;;;6314789;22;38439;-81
2023/02/07 00:49:04;;;;;;;24.00;9.77;;;0.30;99.90;;;;;;6283159;22;36152;-81
2023/02/07 00:51:33;;;;;;;32.87;9.87;;;0.20;99.90;;;;;;6287047;22;38068;-81
2023/02/07 00:54:00;;;;;;;32.60;9.27;;;0.10;99.90;;;;;;6287906;22;37217;-80
2023/02/07 00:56:28;;;;;;;27.33;8.60;;;0.10;99.90;;;;;;6285797;22;46823;-81
2023/02/07 00:58:55;;;;;;;25.70;9.13;;;0.10;99.90;;;;;;6291800;22;35686;-80
2023/02/07 01:01:23;;;;;;;22.70;9.03;;;0.10;99.90;;;;;;6288969;22;37969;-81
2023/02/07 01:03:50;;;;;;;30.87;9.87;;;0.10;99.90;;;;;;6289882;22;37822;-80
2023/02/07 01:06:16;;;;;;;31.63;10.83;;;0.10;99.90;;;;;;6315545;22;37907;-81
2023/02/07 01:08:42;;;;;;;27.70;10.40;;;0.10;99.90;;;;;;6317161;22;37991;-81
2023/02/07 01:11:12;;;;;;;28.77;9.47;;;0.10;99.90;;;;;;6288000;22;38387;-81
2023/02/07 01:13:42;;;;;;;26.63;10.33;;;0.00;99.90;;;;;;6284896;22;37834;-81
2023/02/07 01:16:26;;;;;;;22.07;8.43;;;0.00;99.90;;;;;;6315389;22;38302;-81
2023/02/07 01:18:53;;;;;;;27.07;10.57;;;0.00;99.90;;;;;;6288381;22;37012;-81
2023/02/07 01:21:22;;;;;;;25.60;9.23;;;0.00;99.90;;;;;;6282452;22;37856;-81
2023/02/07 01:23:48;;;;;;;30.13;9.83;;;0.00;99.90;;;;;;6283746;22;37607;-81
2023/02/07 01:26:14;;;;;;;25.23;8.50;;;0.00;99.90;;;;;;6285968;22;36842;-81
2023/02/07 01:28:41;;;;;;;27.13;8.93;;;0.00;99.90;;;;;;6291256;22;36714;-81
2023/02/07 01:31:09;;;;;;;18.80;8.90;;;-0.10;99.90;;;;;;6288002;22;37568;-80
2023/02/07 01:33:36;;;;;;;23.17;9.27;;;-0.10;99.90;;;;;;6288565;22;37423;-80
2023/02/07 01:36:10;;;;;;;29.87;10.33;;;-0.10;99.90;;;;;;6282219;22;36406;-81
2023/02/07 01:38:36;;;;;;;28.23;9.23;;;-0.10;99.90;;;;;;6286025;22;46788;-81
2023/02/07 01:41:03;;;;;;;26.97;9.10;;;-0.10;99.90;;;;;;6287895;22;39017;-81
2023/02/07 01:43:29;;;;;;;31.03;9.97;;;-0.10;99.90;;;;;;6315718;22;38092;-81
2023/02/07 01:45:56;;;;;;;27.57;9.20;;;-0.10;99.90;;;;;;6284778;22;36941;-81
2023/02/07 01:48:30;;;;;;;23.83;8.53;;;-0.10;99.90;;;;;;6309958;22;37581;-80
2023/02/07 01:50:59;;;;;;;25.23;9.10;;;-0.10;99.90;;;;;;6312651;22;38558;-80
2023/02/07 01:53:27;;;;;;;31.13;11.37;;;-0.20;99.90;;;;;;6289136;22;37132;-81
2023/02/07 01:56:01;;;;;;;23.97;9.23;;;-0.20;99.90;;;;;;6289467;22;36918;-81
2023/02/07 01:58:27;;;;;;;27.10;8.93;;;-0.20;99.90;;;;;;6288615;22;47288;-80
2023/02/07 02:03:33;;;;;;;19.87;8.67;;;-0.20;99.90;;;;;;6278180;22;20095;-81
2023/02/07 02:05:59;;;;;;;27.23;9.23;;;-0.30;99.90;;;;;;6278834;22;38612;-81
2023/02/07 02:08:35;;;;;;;25.23;8.80;;;-0.20;99.90;;;;;;6246802;22;37402;-80
2023/02/07 02:11:34;;;;;;;20.30;8.40;;;-0.20;99.90;;;;;;6247860;22;40797;-82
2023/02/07 02:17:17;;;;;;;23.77;8.57;;;-0.30;99.90;;;;;;6276682;22;20414;-80
2023/02/07 02:20:20;;;;;;;20.50;8.97;;;-0.20;99.90;;;;;;6186301;22;49384;-80
2023/02/07 02:22:54;;;;;;;26.92;9.20;;;-0.20;99.90;;;;;;6249172;22;47513;-80
2023/02/07 02:25:35;;;;;;;20.30;8.80;;;-0.20;99.90;;;;;;6273757;22;38893;-80
2023/02/07 02:28:35;;;;;;;33.07;8.70;;;-0.20;99.90;;;;;;6249690;22;36613;-81
2023/02/07 02:31:07;;;;;;;26.60;9.17;;;-0.20;99.90;;;;;;6248226;22;37468;-81
2023/02/07 02:33:51;;;;;;;25.40;9.30;;;-0.20;99.90;;;;;;6250918;22;37937;-81
2023/02/07 02:36:23;;;;;;;33.60;9.47;;;-0.20;99.90;;;;;;6251257;22;38744;-80
2023/02/07 02:39:19;;;;;;;25.97;9.87;;;-0.30;99.90;;;;;;6250212;22;37735;-80
2023/02/07 02:42:09;;;;;;;27.33;11.03;;;-0.20;99.90;;;;;;6250296;22;47256;-79
2023/02/07 02:44:58;;;;;;;24.93;10.57;;;-0.30;99.90;;;;;;6242880;22;47156;-79
2023/02/07 02:47:28;;;;;;;22.87;9.40;;;-0.30;99.90;;;;;;6282245;22;39242;-79
2023/02/07 02:49:55;;;;;;;21.37;9.23;;;-0.30;99.90;;;;;;6256287;22;36619;-79
2023/02/07 02:52:21;;;;;;;24.03;9.77;;;-0.30;99.90;;;;;;6280256;22;36548;-79
2023/02/07 02:54:47;;;;;;;26.03;9.70;;;-0.30;99.90;;;;;;6255944;22;37539;-79
2023/02/07 02:57:22;;;;;;;25.70;10.10;;;-0.30;99.90;;;;;;6252722;22;37161;-79
2023/02/07 03:00:26;;;;;;;28.63;9.67;;;-0.40;99.90;;;;;;6253838;22;38016;-79
2023/02/07 03:03:16;;;;;;;30.65;10.65;;;-0.40;99.90;;;;;;6275456;22;49013;-80
2023/02/07 03:06:01;;;;;;;26.97;8.93;;;-0.40;99.90;;;;;;6243872;22;47057;-79
2023/02/07 03:08:55;;;;;;;27.33;10.20;;;-0.40;99.90;;;;;;6276284;22;49390;-78
2023/02/07 03:11:23;;;;;;;29.67;12.10;;;-0.40;99.90;;;;;;6252993;22;37208;-79
2023/02/07 03:14:02;;;;;;;27.13;11.03;;;-0.40;99.90;;;;;;6254278;22;37854;-78
2023/02/07 03:16:47;;;;;;;36.37;10.90;;;-0.40;99.90;;;;;;6244306;22;47756;-79
2023/02/07 03:19:23;;;;;;;32.10;10.60;;;-0.40;99.90;;;;;;6248252;22;37239;-79
2023/02/07 03:21:55;;;;;;;23.93;11.00;;;-0.40;99.90;;;;;;6253597;22;36855;-80
2023/02/07 03:24:34;;;;;;;30.92;11.70;;;-0.40;99.90;;;;;;6279020;22;38611;-79
2023/02/07 03:27:06;;;;;;;26.63;11.03;;;-0.40;99.90;;;;;;6283084;22;38855;-79
2023/02/07 03:29:36;;;;;;;35.03;13.90;;;-0.30;99.90;;;;;;6279578;22;48657;-79
2023/02/07 03:32:06;;;;;;;22.77;12.03;;;-0.30;99.90;;;;;;6275255;22;38364;-80
2023/02/07 03:34:43;;;;;;;27.03;12.03;;;-0.30;99.90;;;;;;6283268;22;37702;-78
2023/02/07 03:37:15;;;;;;;41.40;13.53;;;-0.30;99.90;;;;;;6251837;22;37821;-79
2023/02/07 03:39:41;;;;;;;35.45;14.82;;;-0.20;99.90;;;;;;6251516;22;38355;-79
2023/02/07 03:42:32;;;;;;;29.37;12.40;;;-0.10;99.90;;;;;;6251139;22;36781;-79
2023/02/07 03:45:00;;;;;;;34.93;14.87;;;0.00;99.90;;;;;;6282880;22;37265;-78
2023/02/07 03:47:26;;;;;;;34.93;13.20;;;0.00;99.90;;;;;;6251271;22;38146;-78
2023/02/07 03:49:53;;;;;;;32.57;12.90;;;0.00;99.90;;;;;;6252014;22;39901;-79
2023/02/07 03:52:19;;;;;;;29.53;13.27;;;0.00;99.90;;;;;;6275608;22;39121;-79
2023/02/07 03:54:45;;;;;;;27.37;12.87;;;-0.10;99.90;;;;;;6251610;22;36499;-79
2023/02/07 03:57:11;;;;;;;34.13;14.00;;;-0.20;99.90;;;;;;6249947;22;39670;-79
2023/02/07 03:59:38;;;;;;;32.60;15.20;;;-0.10;99.90;;;;;;6281382;22;39240;-79
2023/02/07 04:02:04;;;;;;;47.20;16.00;;;-0.10;99.90;;;;;;6251945;22;38538;-80
2023/02/07 04:04:30;;;;;;;31.40;15.03;;;-0.10;99.90;;;;;;6253435;22;39446;-79
2023/02/07 04:06:57;;;;;;;49.60;20.87;;;-0.10;99.90;;;;;;6251515;22;37592;-79
2023/02/07 04:09:23;;;;;;;45.17;17.43;;;0.10;99.90;;;;;;6280100;22;38363;-79
2023/02/07 04:11:50;;;;;;;35.07;15.83;;;-0.10;99.90;;;;;;6250772;22;39089;-79
2023/02/07 04:14:21;;;;;;;33.43;16.50;;;-0.10;99.90;;;;;;6250798;22;36058;-79
2023/02/07 04:16:48;;;;;;;34.50;15.90;;;0.00;99.90;;;;;;6252879;22;39628;-79
2023/02/07 04:19:14;;;;;;;38.33;16.83;;;-0.10;99.90;;;;;;6245810;22;39521;-78
2023/02/07 04:21:41;;;;;;;40.93;15.10;;;-0.10;99.90;;;;;;6252663;22;36347;-79
2023/02/07 04:24:08;;;;;;;37.83;17.23;;;-0.20;99.90;;;;;;6250998;22;39193;-79
2023/02/07 04:26:34;;;;;;;29.70;14.33;;;-0.10;99.90;;;;;;6250181;22;38998;-79
2023/02/07 04:29:00;;;;;;;35.70;15.77;;;0.00;99.90;;;;;;6278177;22;39446;-79
2023/02/07 04:31:27;;;;;;;34.83;15.40;;;0.00;99.90;;;;;;6252565;22;46854;-78
2023/02/07 04:33:53;;;;;;;40.80;17.43;;;-0.10;99.90;;;;;;6250483;22;36694;-79
2023/02/07 04:36:19;;;;;;;48.93;20.27;;;-0.10;99.90;;;;;;6278116;22;39173;-79
2023/02/07 04:38:45;;;;;;;32.83;16.37;;;-0.10;99.90;;;;;;6275747;22;39365;-82
2023/02/07 04:41:11;;;;;;;42.73;15.80;;;0.10;99.90;;;;;;6276530;22;37601;-82
2023/02/07 04:43:38;;;;;;;40.30;17.60;;;0.10;99.90;;;;;;6250308;22;36086;-79
2023/02/07 04:46:07;;;;;;;33.00;17.60;;;0.10;99.90;;;;;;6273524;22;38951;-81
2023/02/07 04:48:36;;;;;;;33.77;16.90;;;0.00;99.90;;;;;;6276022;22;38675;-82
2023/02/07 04:51:03;;;;;;;31.93;15.43;;;-0.10;99.90;;;;;;6277965;22;37853;-82
2023/02/07 04:53:29;;;;;;;42.80;18.53;;;-0.20;99.90;;;;;;6279711;22;37745;-81
2023/02/07 04:55:56;;;;;;;44.40;16.93;;;-0.30;99.90;;;;;;6252809;22;38163;-81
2023/02/07 04:58:22;;;;;;;29.03;16.10;;;-0.30;99.90;;;;;;6253743;22;37171;-81
2023/02/07 05:00:48;;;;;;;34.20;17.40;;;-0.40;99.90;;;;;;6253918;22;37362;-81
2023/02/07 05:03:15;;;;;;;41.37;18.90;;;-0.40;99.90;;;;;;6251112;22;38461;-81
2023/02/07 05:05:42;;;;;;;39.37;17.13;;;-0.50;99.90;;;;;;6253461;22;37899;-80
2023/02/07 05:08:09;;;;;;;32.63;15.00;;;-0.60;99.90;;;;;;6244705;22;37716;-81
2023/02/07 05:10:36;;;;;;;48.53;17.87;;;-0.60;99.90;;;;;;6253510;22;38241;-81
2023/02/07 05:13:06;;;;;;;32.13;15.70;;;-0.60;99.90;;;;;;6249087;22;36223;-81
2023/02/07 05:15:33;;;;;;;43.00;18.10;;;-0.60;99.90;;;;;;6252944;22;42226;-80
2023/02/07 05:18:00;;;;;;;38.10;16.43;;;-0.60;99.90;;;;;;6251323;22;38808;-81
2023/02/07 05:20:26;;;;;;;36.87;16.63;;;-0.70;99.90;;;;;;6244237;22;39522;-81
2023/02/07 05:22:52;;;;;;;33.50;15.37;;;-0.80;99.90;;;;;;6278458;22;38812;-80
2023/02/07 05:25:19;;;;;;;35.10;14.10;;;-0.80;99.90;;;;;;6248259;22;40232;-80
2023/02/07 05:27:45;;;;;;;35.43;17.17;;;-0.80;99.90;;;;;;6248723;22;39949;-80
2023/02/07 05:30:11;;;;;;;33.80;16.97;;;-0.80;99.90;;;;;;6249224;22;38429;-80
2023/02/07 05:35:22;;;;;;;41.07;19.00;;;-0.90;99.90;;;;;;6270077;22;39261;-81
2023/02/07 05:37:49;;;;;;;43.47;17.77;;;-0.80;99.90;;;;;;6250248;22;38482;-80
2023/02/07 05:40:15;;;;;;;48.17;21.13;;;-0.80;99.90;;;;;;6248289;22;39106;-80
2023/02/07 05:42:41;;;;;;;35.90;17.40;;;-0.80;99.90;;;;;;6251315;22;37422;-80
2023/02/07 05:45:08;;;;;;;42.43;19.10;;;-0.80;99.90;;;;;;6281775;22;38497;-81
2023/02/07 05:47:34;;;;;;;42.37;18.27;;;-0.90;99.90;;;;;;6258044;22;37245;-81
2023/02/07 05:50:00;;;;;;;33.73;17.17;;;-0.90;99.90;;;;;;6274557;22;38495;-81
2023/02/07 05:52:27;;;;;;;42.57;18.47;;;-0.90;99.90;;;;;;6285218;22;38144;-81
2023/02/07 05:54:53;;;;;;;43.10;18.83;;;-0.90;99.90;;;;;;6258012;22;37837;-82
2023/02/07 05:57:20;;;;;;;42.43;19.80;;;-0.90;99.90;;;;;;6254258;22;38815;-81
2023/02/07 05:59:46;;;;;;;45.17;20.17;;;-0.90;99.90;;;;;;6258937;22;37111;-81
2023/02/07 06:02:12;;;;;;;40.17;18.43;;;-1.00;99.90;;;;;;6283079;22;37274;-82
2023/02/07 06:04:38;;;;;;;43.97;20.73;;;-1.00;99.90;;;;;;6257180;22;40679;-81
2023/02/07 06:07:05;;;;;;;50.40;21.23;;;-0.80;99.90;;;;;;6286759;22;38621;-81
2023/02/07 06:09:31;;;;;;;40.63;22.03;;;-0.70;99.90;;;;;;6284532;22;37195;-81
2023/02/07 06:11:57;;;;;;;47.03;21.63;;;-0.80;99.90;;;;;;6257348;22;38086;-81
2023/02/07 06:14:23;;;;;;;47.00;21.27;;;-0.80;99.90;;;;;;6231129;22;37669;-81
2023/02/07 06:16:49;;;;;;;49.60;20.13;;;-0.90;99.90;;;;;;6253620;22;37196;-81
2023/02/07 06:19:15;;;;;;;45.10;20.33;;;-0.90;99.90;;;;;;6254148;22;38100;-81
2023/02/07 06:21:43;;;;;;;45.13;21.90;;;-1.00;99.90;;;;;;6253699;22;36575;-82
2023/02/07 06:24:11;;;;;;;60.47;25.43;;;-1.00;99.90;;;;;;6231745;22;38734;-81
2023/02/07 06:26:40;;;;;;;48.40;20.33;;;-1.10;99.90;;;;;;6227843;22;38740;-81
2023/02/07 06:29:08;;;;;;;54.37;23.30;;;-1.10;99.90;;;;;;6258060;22;37215;-82
2023/02/07 06:31:42;;;;;;;51.57;23.33;;;-1.10;99.90;;;;;;6259453;22;37125;-82
2023/02/07 06:34:11;;;;;;;46.23;22.30;;;-1.10;99.90;;;;;;6215872;22;39499;-82
2023/02/07 06:36:42;;;;;;;45.63;22.07;;;-1.10;99.90;;;;;;6281527;22;38339;-82
2023/02/07 06:39:12;;;;;;;39.03;20.97;;;-1.20;99.90;;;;;;6206901;22;37781;-82
2023/02/07 06:41:55;;;;;;;40.80;20.13;;;-1.20;99.90;;;;;;6266688;22;38136;-81
2023/02/07 06:44:50;;;;;;;52.23;21.37;;;-1.20;99.90;;;;;;6257596;22;39576;-80
2023/02/07 06:47:23;;;;;;;48.80;22.43;;;-1.20;99.90;;;;;;6233682;22;39013;-81
2023/02/07 06:49:50;;;;;;;59.07;27.00;;;-1.10;99.90;;;;;;6251919;22;37811;-80
2023/02/07 06:52:18;;;;;;;78.37;33.97;;;-0.90;99.90;;;;;;6241128;22;36546;-79
2023/02/07 06:54:45;;;;;;;120.47;43.17;;;-0.60;99.90;;;;;;6248774;22;39417;-82
2023/02/07 06:57:22;;;;;;;112.17;37.20;;;-0.20;99.90;;;;;;6234509;22;39265;-80
2023/02/07 06:59:54;;;;;;;119.00;40.20;;;-0.10;99.90;;;;;;6231201;22;38186;-80
2023/02/07 07:02:24;;;;;;;113.88;41.47;;;0.00;99.90;;;;;;6169131;22;36869;-80
2023/02/07 07:04:59;;;;;;;79.77;38.83;;;0.10;99.90;;;;;;6182049;22;39862;-82
2023/02/07 07:08:17;;;;;;;96.23;39.23;;;0.10;99.90;;;;;;6199925;22;37275;-80
2023/02/07 07:11:09;;;;;;;135.87;41.33;;;0.10;99.90;;;;;;6159329;23;49309;-81
2023/02/07 07:13:37;;;;;;;72.83;37.50;;;0.10;99.90;;;;;;6164938;22;38936;-81
2023/02/07 07:16:42;;;;;;;134.07;46.93;;;0.20;99.90;;;;;;6151051;23;38456;-81
2023/02/07 07:19:36;;;;;;;71.33;38.17;;;0.20;99.90;;;;;;6131373;22;38831;-83
2023/02/07 07:22:47;;;;;;;90.72;38.78;;;0.20;99.90;;;;;;6077207;23;39150;-83
2023/02/07 07:25:19;;;;;;;72.30;37.27;;;0.30;99.90;;;;;;6147889;22;37343;-82
2023/02/07 07:28:21;;;;;;;82.80;38.45;;;0.30;99.90;;;;;;6204326;22;39505;-81
2023/02/07 07:31:23;;;;;;;122.47;45.53;;;0.30;99.90;;;;;;6179589;22;47576;-82
2023/02/07 07:34:06;;;;;;;92.75;40.15;;;0.40;99.90;;;;;;6174158;22;49182;-81
2023/02/07 07:36:42;;;;;;;107.20;43.83;;;0.40;99.90;;;;;;6143246;22;50302;-80
2023/02/07 07:40:05;;;;;;;106.73;43.37;;;0.40;99.90;;;;;;6191642;22;39286;-82
2023/02/07 07:42:37;;;;;;;88.57;40.90;;;0.40;99.90;;;;;;6236784;22;50233;-81
2023/02/07 07:45:04;;;;;;;80.30;39.47;;;0.40;99.90;;;;;;6220609;22;37820;-80
2023/02/07 07:47:31;;;;;;;127.57;48.07;;;0.40;99.90;;;;;;6244177;22;49080;-81
2023/02/07 07:49:58;;;;;;;114.73;41.97;;;0.40;99.90;;;;;;6219199;22;39086;-81
2023/02/07 07:52:28;;;;;;;113.30;41.53;;;0.30;99.90;;;;;;6245192;22;40036;-80
2023/02/07 07:55:02;;;;;;;107.57;44.83;;;0.30;99.90;;;;;;6245178;22;39440;-81
2023/02/07 07:57:29;;;;;;;113.13;42.27;;;0.30;99.90;;;;;;6221368;22;37677;-81
2023/02/07 08:00:00;;;;;;;89.80;40.80;;;0.40;99.90;;;;;;6248549;22;39258;-81
2023/02/07 08:02:31;;;;;;;122.00;44.80;;;0.40;99.90;;;;;;6208530;23;38568;-80
2023/02/07 08:05:01;;;;;;;90.80;40.53;;;0.40;99.90;;;;;;6244343;22;39782;-81
2023/02/07 08:09:57;;;;;;;72.37;35.17;;;0.50;99.90;;;;;;6163839;23;20010;-81
2023/02/07 08:12:24;;;;;;;75.57;35.07;;;0.50;99.90;;;;;;6131510;23;37458;-81
2023/02/07 08:14:51;;;;;;;80.53;37.40;;;0.50;99.90;;;;;;6165554;22;38315;-80
2023/02/07 08:17:17;;;;;;;97.80;42.73;;;0.50;99.90;;;;;;6189360;23;36864;-81
2023/02/07 08:19:43;;;;;;;69.07;36.80;;;0.50;99.90;;;;;;6151082;23;38217;-80
2023/02/07 08:22:09;;;;;;;172.20;48.47;;;0.60;99.90;;;;;;6159357;23;37278;-81
2023/02/07 08:24:37;;;;;;;79.37;34.20;;;0.60;99.90;;;;;;6160687;23;36725;-79
2023/02/07 08:27:03;;;;;;;61.47;32.07;;;0.60;99.90;;;;;;6162467;23;36941;-80
2023/02/07 08:29:29;;;;;;;95.30;38.00;;;0.50;99.90;;;;;;6158043;23;39946;-80
2023/02/07 08:31:56;;;;;;;122.40;40.00;;;0.50;99.90;;;;;;6159590;23;37169;-81
2023/02/07 08:34:25;;;;;;;78.10;36.73;;;0.50;99.90;;;;;;6162570;23;39146;-82
2023/02/07 08:36:52;;;;;;;67.00;33.57;;;0.50;99.90;;;;;;6161257;23;37804;-82
2023/02/07 08:39:18;;;;;;;69.13;33.57;;;0.50;99.90;;;;;;6168813;23;38140;-81
2023/02/07 08:41:44;;;;;;;65.40;34.00;;;0.40;99.90;;;;;;6168020;23;37943;-82
2023/02/07 08:44:10;;;;;;;60.30;33.00;;;0.50;99.90;;;;;;6133645;23;37026;-81
2023/02/07 08:46:36;;;;;;;68.23;31.67;;;0.50;99.90;;;;;;6166327;23;37692;-81
2023/02/07 08:49:02;;;;;;;53.67;30.00;;;0.60;99.90;;;;;;6166092;23;39953;-82
2023/02/07 08:51:28;;;;;;;51.80;29.27;;;0.50;99.90;;;;;;6164496;23;37780;-81
2023/02/07 08:53:54;;;;;;;89.20;33.57;;;0.50;99.90;;;;;;6167262;23;39009;-81
2023/02/07 08:56:20;;;;;;;49.27;28.57;;;0.50;99.90;;;;;;6164886;23;36916;-81
2023/02/07 08:58:46;;;;;;;69.33;32.17;;;0.60;99.90;;;;;;6162835;23;40725;-80
2023/02/07 09:01:13;;;;;;;61.03;31.37;;;0.70;99.90;;;;;;6183087;23;39017;-81
2023/02/07 09:03:39;;;;;;;109.33;34.77;;;0.70;99.90;;;;;;6183867;23;38310;-80
2023/02/07 09:06:06;;;;;;;45.23;28.27;;;0.60;99.90;;;;;;6157903;23;38204;-80
2023/02/07 09:08:32;;;;;;;72.43;29.70;;;0.50;99.90;;;;;;6169813;23;38022;-81
2023/02/07 09:10:58;;;;;;;93.50;36.83;;;0.50;99.90;;;;;;6163866;23;37496;-80
2023/02/07 09:13:24;;;;;;;64.07;30.70;;;0.50;99.90;;;;;;6183607;23;37239;-80
2023/02/07 09:15:57;;;;;;;100.63;36.10;;;0.70;99.90;;;;;;6186235;23;37735;-80
2023/02/07 09:18:25;;;;;;;50.10;28.60;;;0.70;99.90;;;;;;6183725;23;39350;-80
2023/02/07 09:20:51;;;;;;;42.33;26.50;;;0.60;99.90;;;;;;6154596;23;38875;-80
2023/02/07 09:23:18;;;;;;;73.40;31.47;;;0.50;99.90;;;;;;6155155;23;38698;-80
2023/02/07 09:25:51;;;;;;;146.57;41.17;;;0.60;99.90;;;;;;6157001;23;37937;-81
2023/02/07 09:28:18;;;;;;;87.47;33.30;;;0.90;99.90;;;;;;6184127;23;38455;-80
2023/02/07 09:30:46;;;;;;;53.67;28.57;;;1.00;99.90;;;;;;6184369;23;38374;-81
2023/02/07 09:33:13;;;;;;;100.97;32.47;;;0.90;99.90;;;;;;6183800;23;38098;-81
2023/02/07 09:35:42;;;;;;;56.53;29.60;;;0.60;99.90;;;;;;6156238;23;38217;-80
2023/02/07 09:38:18;;;;;;;215.17;45.60;;;0.70;99.90;;;;;;6182773;23;40632;-80
2023/02/07 09:40:47;;;;;;;48.30;29.33;;;0.90;99.90;;;;;;6180335;23;39976;-80
2023/02/07 09:43:38;;;;;;;119.93;33.03;;;0.80;99.90;;;;;;6177764;23;38970;-80
2023/02/07 09:46:32;;;;;;;90.30;31.47;;;0.70;99.90;;;;;;6160032;23;37964;-80
2023/02/07 09:49:03;;;;;;;;;;;0.50;99.90;;;;;;6186125;23;40732;-81
2023/02/07 09:51:31;;;;;;;63.77;29.23;;;0.70;99.90;;;;;;6183826;23;48824;-81
2023/02/07 09:54:10;;;;;;;55.90;31.73;;;0.80;99.90;;;;;;6192220;23;38849;-81
2023/02/07 09:56:37;;;;;;;63.90;31.17;;;0.80;99.90;;;;;;6180150;23;48594;-80
2023/02/07 09:59:19;;;;;;;100.33;33.40;;;1.00;99.90;;;;;;6153411;23;38552;-81
2023/02/07 10:01:49;;;;;;;51.08;27.92;;;0.90;99.90;;;;;;6179935;23;38471;-80
2023/02/07 10:04:21;;;;;;;81.23;28.10;;;1.10;99.90;;;;;;6186519;23;37894;-80
2023/02/07 10:06:53;;;;;;;66.15;25.55;;;1.00;99.90;;;;;;6189141;23;39028;-81
2023/02/07 10:09:40;;;;;;;61.28;26.90;;;1.00;99.90;;;;;;6186065;23;39225;-80
2023/02/07 10:12:14;;;;;;;46.07;28.37;;;0.80;99.90;;;;;;6156282;23;39352;-81
2023/02/07 10:14:58;;;;;;;44.97;26.23;;;0.80;99.90;;;;;;6161082;23;36980;-81
2023/02/07 10:17:53;;;;;;;76.13;30.27;;;0.90;99.90;;;;;;6166955;23;36522;-82
2023/02/07 10:21:01;;;;;;;62.87;29.47;;;1.00;99.90;;;;;;6195335;23;37420;-81
2023/02/07 10:24:27;;;;;;;65.53;28.70;;;1.10;99.90;;;;;;6169912;23;48306;-82
2023/02/07 10:27:08;;;;;;;56.70;28.83;;;1.30;99.90;;;;;;6054002;23;47152;-81
2023/02/07 10:29:47;;;;;;;76.53;31.10;;;1.20;99.90;;;;;;6153568;23;46851;-80
2023/02/07 10:32:25;;;;;;;46.90;27.93;;;1.20;99.90;;;;;;6174963;23;40795;-80
2023/02/07 10:34:55;;;;;;;57.60;30.70;;;1.10;99.90;;;;;;6184290;23;38096;-82
2023/02/07 10:37:26;;;;;;;42.70;27.10;;;1.20;99.90;;;;;;6179291;23;36936;-81
2023/02/07 10:40:05;;;;;;;61.63;28.43;;;1.40;99.90;;;;;;6206841;23;37978;-81
2023/02/07 10:42:34;;;;;;;57.23;30.17;;;1.40;99.90;;;;;;6177139;23;47225;-81
2023/02/07 10:45:01;;;;;;;46.43;28.13;;;1.40;99.90;;;;;;6202917;23;39127;-80
2023/02/07 10:47:29;;;;;;;51.60;28.60;;;1.50;99.90;;;;;;6199758;23;46761;-80
2023/02/07 10:49:57;;;;;;;52.83;28.10;;;1.70;99.90;;;;;;6199340;23;37768;-81
2023/02/07 10:52:29;;;;;;;48.67;28.77;;;1.80;99.90;;;;;;6184970;23;39929;-79
2023/02/07 10:55:00;;;;;;;41.40;26.03;;;2.00;99.90;;;;;;6161808;23;39094;-81
2023/02/07 10:57:28;;;;;;;54.33;28.33;;;1.80;99.90;;;;;;6155538;23;38304;-81
2023/02/07 11:00:24;;;;;;;41.97;25.93;;;1.70;99.90;;;;;;6183531;23;38425;-81
2023/02/07 11:03:02;;;;;;;54.43;28.57;;;1.80;99.90;;;;;;6160505;23;47382;-81
2023/02/07 11:05:32;;;;;;;42.70;24.47;;;1.80;99.90;;;;;;6185142;23;48517;-81
2023/02/07 11:08:18;;;;;;;44.57;26.37;;;1.50;99.90;;;;;;6162593;23;36518;-81
2023/02/07 11:10:47;;;;;;;44.60;26.53;;;1.40;99.90;;;;;;6158801;23;47187;-81
2023/02/07 11:13:28;;;;;;;47.47;25.50;;;1.80;99.90;;;;;;6156145;23;38522;-82
2023/02/07 11:16:05;;;;;;;46.80;25.63;;;1.70;99.90;;;;;;6164475;23;37282;-81
2023/02/07 11:18:36;;;;;;;43.77;26.07;;;1.80;99.90;;;;;;6169937;23;47112;-81
2023/02/07 11:21:19;;;;;;;44.30;25.30;;;1.90;99.90;;;;;;6156743;23;38344;-82
2023/02/07 11:23:45;;;;;;;;;;;2.10;99.90;;;;;;6200485;23;39222;-79
2023/02/07 11:26:14;;;;;;;40.33;24.30;;;2.40;99.90;;;;;;6172852;23;39357;-81
2023/02/07 11:28:41;;;;;;;38.23;23.57;;;1.80;99.90;;;;;;6175570;23;39265;-81
2023/02/07 11:31:13;;;;;;;38.90;23.50;;;1.90;99.90;;;;;;6171998;23;38541;-79
2023/02/07 11:33:40;;;;;;;36.87;23.13;;;1.90;99.90;;;;;;6174401;23;40932;-79
2023/02/07 11:36:30;;;;;;;37.50;23.23;;;1.90;99.90;;;;;;6198276;23;39280;-80
2023/02/07 11:38:58;;;;;;;39.87;23.83;;;2.00;99.90;;;;;;6176403;23;38462;-79
2023/02/07 11:41:28;;;;;;;44.97;24.43;;;2.20;99.90;;;;;;6195818;23;37571;-80
2023/02/07 11:44:03;;;;;;;43.77;25.77;;;2.60;99.90;;;;;;6201463;23;39191;-79
2023/02/07 11:46:44;;;;;;;40.30;24.27;;;2.70;99.90;;;;;;6203641;23;49024;-80
2023/02/07 11:49:37;;;;;;;40.70;24.23;;;2.50;99.90;;;;;;6172086;23;40082;-80
2023/02/07 11:52:07;;;;;;;47.50;27.67;;;2.50;99.90;;;;;;6194999;23;37495;-80
2023/02/07 11:54:34;;;;;;;47.63;27.40;;;2.50;99.90;;;;;;6196632;23;37816;-80
2023/02/07 11:57:12;;;;;;;52.87;29.43;;;2.60;99.90;;;;;;6167882;23;37858;-80
2023/02/07 12:00:07;;;;;;;51.83;28.60;;;2.80;99.90;;;;;;6171187;23;46923;-80
2023/02/07 12:02:34;;;;;;;46.80;28.23;;;2.60;99.90;;;;;;6166457;23;46905;-81
2023/02/07 12:05:22;;;;;;;47.00;28.57;;;2.40;99.90;;;;;;6171656;23;39762;-81
2023/02/07 12:07:57;;;;;;;48.33;27.90;;;2.50;99.90;;;;;;6175701;23;48466;-81
2023/02/07 12:10:34;;;;;;;55.73;32.63;;;2.50;99.90;;;;;;6174780;23;37166;-81
2023/02/07 12:13:41;;;;;;;52.80;31.70;;;2.50;99.90;;;;;;6173334;23;38188;-80
2023/02/07 12:16:19;;;;;;;55.07;33.60;;;2.60;99.90;;;;;;6167429;23;47428;-81
2023/02/07 12:19:10;;;;;;;54.80;32.40;;;2.90;99.90;;;;;;6175071;23;37192;-80
2023/02/07 12:21:50;;;;;;;57.33;31.97;;;2.70;99.90;;;;;;6176997;23;47083;-80
2023/02/07 12:24:47;;;;;;;66.43;37.23;;;2.70;99.90;;;;;;6175346;23;36512;-81
2023/02/07 12:27:18;;;;;;;70.93;39.20;;;2.90;99.90;;;;;;6146306;23;38862;-81
2023/02/07 12:30:09;;;;;;;69.80;37.03;;;3.10;99.90;;;;;;6181962;23;39156;-81
2023/02/07 12:33:00;;;;;;;62.50;35.07;;;2.80;99.90;;;;;;6174189;23;47880;-81
2023/02/07 12:35:39;;;;;;;59.53;35.73;;;3.00;99.90;;;;;;6195560;23;36490;-81
2023/02/07 12:38:24;;;;;;;64.17;37.30;;;3.30;99.90;;;;;;6163930;23;38626;-81
2023/02/07 12:41:15;;;;;;;60.13;32.70;;;3.50;99.90;;;;;;6177704;23;20021;-81
2023/02/07 12:44:04;;;;;;;57.27;32.50;;;3.40;99.90;;;;;;6178505;23;47502;-77
2023/02/07 12:47:01;;;;;;;61.40;34.23;;;3.50;99.90;;;;;;6156125;23;47471;-77
2023/02/07 12:49:45;;;;;;;56.23;32.33;;;3.80;99.90;;;;;;6176508;23;48435;-78
2023/02/07 12:52:23;;;;;;;55.10;31.57;;;3.70;99.90;;;;;;6179227;23;39048;-78
2023/02/07 12:55:11;;;;;;;62.60;34.27;;;3.80;99.90;;;;;;6183389;23;38255;-78
2023/02/07 12:58:15;;;;;;;57.13;31.47;;;3.90;99.90;;;;;;6156466;23;49468;-78
2023/02/07 13:01:21;;;;;;;55.20;31.40;;;4.10;99.90;;;;;;6130246;23;47253;-78
2023/02/07 13:04:05;;;;;;;54.57;30.70;;;4.30;99.90;;;;;;6153045;23;47124;-78
2023/02/07 13:06:53;;;;;;;50.20;29.83;;;4.50;99.90;;;;;;6156467;23;47058;-78
2023/02/07 13:09:35;;;;;;;48.70;27.97;;;4.30;99.90;;;;;;6153377;23;39058;-77
2023/02/07 13:12:16;;;;;;;47.00;26.87;;;4.40;99.90;;;;;;6182632;23;38791;-78
2023/02/07 13:15:13;;;;;;;45.67;26.07;;;4.50;99.90;;;;;;6154664;23;38693;-76
2023/02/07 13:18:16;;;;;;;40.63;24.90;;;4.70;99.90;;;;;;6183919;23;48338;-77
2023/02/07 13:21:04;;;;;;;42.03;25.23;;;4.80;99.90;;;;;;6155825;23;47694;-78